Airfield :
LOGIN :

Register | Disclaimer

   EN    FR    IT 

 










Legend :    VFR   Marginal VFR   IFR   Intensive IFR   Very Intensive IFR
Visi :
Ceiling :
>= 8 km
>= 3000ft
5 to 8 km
1000 to 3000 ft
1500m to 5 km
500 to 1000 ft
800 to 1500m
200 to 500 ft
< 800m
< 200 ft
Symbols :   Thunderstorms  Fog  Heavy snow  Heavy precipitations  Wind > 20 kt
SIGMETs :     Misc.  Thunderstorms  Icing  Turbulence  Mountain Waves  Volcanic Ashes






- Airport Elevation : 3 ft
- IATA code : DHR


EHKD - Den Helder De Kooy

CURRENT METAR :
  • 030855Z AUTO 26009KT 230V300 9999 FEW015 OVC032 18/14 Q1017 BLU NOSIG

EXPIRED METARs :
  • 030825Z AUTO 27010KT 230V300 9999 NCD 18/14 Q1017 BLU NOSIG
  • 030800Z AUTO 28009KT 250V320 9999 FEW016 19/14 Q1017 BLU NOSIG
  • 030755Z AUTO 28009KT 240V320 9999 FEW018 18/13 Q1017 BLU TEMPO SCT011
  • 030738Z AUTO 29009KT 250V330 9999 FEW016 18/14 Q1017 BLU TEMPO SCT011
  • 030727Z AUTO 28009KT 240V310 9999 FEW012 BKN015 18/14 Q1017 WHT TEMPO SCT011
  • 030725Z AUTO 28010KT 250V310 9999 SCT012 BKN014 BKN016 18/14 Q1017 GRN TEMPO SCT011
  • 030709Z AUTO 28009KT 240V320 9999 SCT010 BKN012 BKN080 18/15 Q1017 GRN TEMPO SCT011
  • 030655Z AUTO 28009KT 240V320 9999 SCT010 BKN012 BKN015 17/14 Q1016 GRN TEMPO SCT011
  • 030625Z AUTO 24008KT 9999 SCT010 BKN013 BKN074 17/15 Q1016 GRN TEMPO SCT011
  • 030555Z AUTO 23008KT 200V260 9999 FEW010 OVC012 17/15 Q1016 GRN TEMPO SCT011

TAF TAF EHKD
Valid from the 03 at 05:00 until the 03 at 17:00 UTC


030455Z 0305/0317 21005KT CAVOK
BECMG 0305/0308 26008KT FEW018 SCT025
PROB30
TEMPO 0305/0307 FEW008 SCT013
PROB30
TEMPO 0309/0314 6000 -SHRA FEW015 SCT025CB BKN040
BECMG 0311/0313 27010KT



MET'MAP, your aeronautical weather chart ! - Copyright ORBIFLY December 2007 - Disclaimer

ORBIFLY MET'MAP TEAM :

Programming & Development : Alexandra Zaïnal
Original concept : Baudouin d'Aumeries
Technical & hardware support : Manuel Goepfert
Assistance : Marc-Olivier Méhu




SOURCES & CREDITS :

   NOAA